CheckWX is a tool to help pilots better visualize weather data.  It is not intended as a substitute for an official pre-flight weather briefing.

08:56:25 UTC

KAUG TAF
Augusta State Airport
Augusta, Maine, USA
KAUG 220533Z 2206/2306 11005KT P6SM OVC008 FM221300 02015KT 1/2SM RASN OVC004 FM221600 01013G21KT 1SM RA OVC004 FM230400 33008KT 2SM -RASN OVC008

Mar-22@
06:00 UTC

Mar-22 @ 06:00 UTC

Mar-22@
13:00 UTC

Mar-22 @ 13:00 UTC

KAUG 220533Z 2206/2306 11005KT P6SM OVC008
Wind
  • 110° at 5 KTS
Cloud Levels
  • Overcast at 800' AGL

Mar-22@
13:00 UTC

Mar-22 @ 13:00 UTC

Mar-22@
16:00 UTC

Mar-22 @ 16:00 UTC

FM221300 02015KT 1/2SM RASN OVC004

From

From Standard forecast or significant change

Wind
  • 020° at 15 KTS
Conditions
Rain, Snow
Cloud Levels
  • Overcast at 400' AGL

Mar-22@
16:00 UTC

Mar-22 @ 16:00 UTC

Mar-23@
04:00 UTC

Mar-23 @ 04:00 UTC

FM221600 01013G21KT 1SM RA OVC004

From

From Standard forecast or significant change

Wind
  • 010° at 13 KTS
  • {Gusting to 21 KTS
Conditions
Rain
Cloud Levels
  • Overcast at 400' AGL

Mar-23@
04:00 UTC

Mar-23 @ 04:00 UTC

Mar-23@
06:00 UTC

Mar-23 @ 06:00 UTC

FM230400 33008KT 2SM -RASN OVC008

From

From Standard forecast or significant change

Wind
  • 330° at 8 KTS
Conditions
Light Rain, Light Snow
Cloud Levels
  • Overcast at 800' AGL